Time,TemperatureF,DewpointF,PressureIn,WindDirection,WindDirectionDegrees,WindSpeedMPH,WindSpeedGustMPH,Humidity,HourlyPrecipIn,Conditions,Clouds,dailyrainin,SoftwareType,DateUTC
2013-10-23 00:00:00,42.9,36.5,29.84,West,264,0.0,6.0,78,0.00,,,0.00,Wunderground v.1.15,2013-10-23 04:00:00,
2013-10-23 00:05:00,43.1,36.4,29.84,West,266,1.0,6.0,77,0.00,,,0.00,Wunderground v.1.15,2013-10-23 04:05:00,
2013-10-23 00:10:00,43.2,35.8,29.84,West,266,1.0,1.0,75,0.00,,,0.00,Wunderground v.1.15,2013-10-23 04:10:00,
2013-10-23 00:15:00,43.3,35.6,29.84,West,274,1.0,6.0,74,0.00,,,0.00,Wunderground v.1.15,2013-10-23 04:15:00,
2013-10-23 00:20:00,43.4,36.3,29.84,West,279,2.0,6.0,76,0.00,,,0.00,Wunderground v.1.15,2013-10-23 04:20:00,
2013-10-23 00:25:00,43.3,35.9,29.84,West,277,2.0,7.0,75,0.00,,,0.00,Wunderground v.1.15,2013-10-23 04:25:00,
2013-10-23 00:30:00,43.2,36.1,29.84,West,277,2.0,2.0,76,0.00,,,0.00,Wunderground v.1.15,2013-10-23 04:30:00,
2013-10-23 00:35:00,43.0,36.3,29.85,West,277,1.0,6.0,77,0.00,,,0.00,Wunderground v.1.15,2013-10-23 04:35:00,
2013-10-23 00:45:00,42.5,36.8,29.85,West,277,0.0,6.0,80,0.00,,,0.00,Wunderground v.1.15,2013-10-23 04:45:00,
2013-10-23 00:50:00,42.4,37.3,29.85,West,277,1.0,1.0,82,0.00,,,0.00,Wunderground v.1.15,2013-10-23 04:50:00,
2013-10-23 00:55:00,42.2,37.4,29.85,West,277,2.0,2.0,83,0.00,,,0.00,Wunderground v.1.15,2013-10-23 04:55:00,
2013-10-23 01:00:00,42.0,37.5,29.84,West,277,1.0,1.0,84,0.00,,,0.01,Wunderground v.1.15,2013-10-23 05:00:00,
2013-10-23 01:05:00,41.6,37.4,29.84,West,277,0.0,6.0,85,0.00,,,0.01,Wunderground v.1.15,2013-10-23 05:05:00,
2013-10-23 01:10:00,41.3,37.4,29.84,West,277,1.0,1.0,86,0.00,,,0.01,Wunderground v.1.15,2013-10-23 05:10:00,
2013-10-23 01:20:00,40.8,37.5,29.84,West,277,0.0,6.0,88,0.00,,,0.01,Wunderground v.1.15,2013-10-23 05:20:00,
2013-10-23 01:30:00,40.5,37.5,29.84,West,277,0.0,6.0,89,0.00,,,0.02,Wunderground v.1.15,2013-10-23 05:30:00,
2013-10-23 01:35:00,40.4,37.4,29.84,West,277,0.0,6.0,89,0.00,,,0.02,Wunderground v.1.15,2013-10-23 05:35:00,
2013-10-23 01:40:00,40.2,37.5,29.84,West,277,0.0,6.0,90,0.00,,,0.02,Wunderground v.1.15,2013-10-23 05:40:00,
2013-10-23 01:45:00,40.1,37.4,29.84,West,277,0.0,6.0,90,0.00,,,0.02,Wunderground v.1.15,2013-10-23 05:45:00,
2013-10-23 01:55:00,40.0,37.6,29.83,West,277,0.0,6.0,91,0.00,,,0.03,Wunderground v.1.15,2013-10-23 05:55:00,
2013-10-23 02:00:00,39.9,37.5,29.83,West,277,0.0,6.0,91,0.00,,,0.03,Wunderground v.1.15,2013-10-23 06:00:00,
2013-10-23 02:05:00,39.8,37.4,29.83,West,277,0.0,6.0,91,0.00,,,0.03,Wunderground v.1.15,2013-10-23 06:05:00,
2013-10-23 02:10:00,39.7,37.3,29.83,West,277,0.0,6.0,91,0.00,,,0.03,Wunderground v.1.15,2013-10-23 06:10:00,
2013-10-23 02:20:00,39.5,37.4,29.83,West,277,0.0,6.0,92,0.00,,,0.04,Wunderground v.1.15,2013-10-23 06:20:00,
2013-10-23 02:30:00,39.3,37.2,29.82,West,277,0.0,6.0,92,0.00,,,0.04,Wunderground v.1.15,2013-10-23 06:30:00,
2013-10-23 02:35:00,39.3,37.2,29.82,West,277,0.0,6.0,92,0.00,,,0.04,Wunderground v.1.15,2013-10-23 06:35:00,
2013-10-23 02:40:00,39.2,37.1,29.82,West,277,0.0,6.0,92,0.00,,,0.04,Wunderground v.1.15,2013-10-23 06:40:00,
2013-10-23 02:45:00,39.1,37.0,29.82,West,277,0.0,6.0,92,0.00,,,0.04,Wunderground v.1.15,2013-10-23 06:45:00,
2013-10-23 02:50:00,39.0,36.9,29.82,West,277,0.0,6.0,92,0.00,,,0.04,Wunderground v.1.15,2013-10-23 06:50:00,
2013-10-23 02:55:00,39.0,36.9,29.82,West,277,0.0,6.0,92,0.00,,,0.04,Wunderground v.1.15,2013-10-23 06:55:00,
2013-10-23 03:00:00,38.9,36.8,29.82,West,277,0.0,6.0,92,0.00,,,0.04,Wunderground v.1.15,2013-10-23 07:00:00,
2013-10-23 03:05:00,38.9,37.0,29.81,West,277,0.0,6.0,93,0.00,,,0.04,Wunderground v.1.15,2013-10-23 07:05:00,
2013-10-23 03:10:00,38.9,37.0,29.81,West,277,0.0,6.0,93,0.00,,,0.04,Wunderground v.1.15,2013-10-23 07:10:00,
2013-10-23 03:15:00,38.9,37.0,29.81,West,277,0.0,6.0,93,0.00,,,0.04,Wunderground v.1.15,2013-10-23 07:15:00,
2013-10-23 03:20:00,38.8,36.9,29.80,West,277,0.0,6.0,93,0.00,,,0.04,Wunderground v.1.15,2013-10-23 07:20:00,
2013-10-23 03:25:00,38.8,36.9,29.80,West,277,0.0,6.0,93,0.00,,,0.04,Wunderground v.1.15,2013-10-23 07:25:00,
2013-10-23 03:35:00,38.6,36.8,29.79,West,277,0.0,6.0,93,0.00,,,0.04,Wunderground v.1.15,2013-10-23 07:35:00,
2013-10-23 03:40:00,38.6,36.8,29.79,West,277,0.0,6.0,93,0.00,,,0.04,Wunderground v.1.15,2013-10-23 07:40:00,
2013-10-23 03:45:00,38.6,36.8,29.80,West,277,0.0,6.0,93,0.00,,,0.04,Wunderground v.1.15,2013-10-23 07:45:00,
2013-10-23 03:50:00,38.6,36.8,29.79,West,277,0.0,6.0,93,0.00,,,0.04,Wunderground v.1.15,2013-10-23 07:50:00,
2013-10-23 04:00:00,38.6,37.0,29.79,West,277,0.0,6.0,94,0.00,,,0.04,Wunderground v.1.15,2013-10-23 08:00:00,
2013-10-23 04:05:00,38.6,37.0,29.78,West,277,0.0,6.0,94,0.00,,,0.04,Wunderground v.1.15,2013-10-23 08:05:00,
2013-10-23 04:10:00,38.6,37.0,29.78,West,277,0.0,6.0,94,0.00,,,0.04,Wunderground v.1.15,2013-10-23 08:10:00,
2013-10-23 04:15:00,38.6,37.0,29.78,West,277,0.0,6.0,94,0.00,,,0.04,Wunderground v.1.15,2013-10-23 08:15:00,
2013-10-23 04:20:00,38.6,37.0,29.78,West,277,0.0,6.0,94,0.00,,,0.04,Wunderground v.1.15,2013-10-23 08:20:00,
2013-10-23 04:25:00,38.5,36.9,29.77,West,277,0.0,6.0,94,0.00,,,0.04,Wunderground v.1.15,2013-10-23 08:25:00,
2013-10-23 04:30:00,38.6,37.0,29.77,West,277,0.0,6.0,94,0.00,,,0.04,Wunderground v.1.15,2013-10-23 08:30:00,
2013-10-23 04:40:00,38.5,36.9,29.77,West,277,0.0,6.0,94,0.00,,,0.04,Wunderground v.1.15,2013-10-23 08:40:00,
2013-10-23 04:45:00,38.5,36.9,29.76,West,277,0.0,6.0,94,0.00,,,0.04,Wunderground v.1.15,2013-10-23 08:45:00,
2013-10-23 04:50:00,38.4,36.8,29.76,West,277,0.0,6.0,94,0.00,,,0.04,Wunderground v.1.15,2013-10-23 08:50:00,
2013-10-23 04:55:00,38.3,36.7,29.77,West,277,0.0,6.0,94,0.00,,,0.04,Wunderground v.1.15,2013-10-23 08:55:00,
2013-10-23 05:05:00,38.1,36.5,29.76,West,277,0.0,6.0,94,0.00,,,0.04,Wunderground v.1.15,2013-10-23 09:05:00,
2013-10-23 05:15:00,37.8,36.2,29.76,West,277,0.0,6.0,94,0.00,,,0.04,Wunderground v.1.15,2013-10-23 09:15:00,
2013-10-23 05:20:00,37.6,36.0,29.76,West,277,0.0,6.0,94,0.00,,,0.04,Wunderground v.1.15,2013-10-23 09:20:00,
2013-10-23 05:25:00,37.4,35.8,29.76,West,277,0.0,6.0,94,0.00,,,0.04,Wunderground v.1.15,2013-10-23 09:25:00,
2013-10-23 05:30:00,37.3,35.7,29.76,West,277,0.0,6.0,94,0.00,,,0.04,Wunderground v.1.15,2013-10-23 09:30:00,
2013-10-23 05:35:00,37.1,35.5,29.76,West,277,0.0,6.0,94,0.00,,,0.04,Wunderground v.1.15,2013-10-23 09:35:00,
2013-10-23 05:40:00,36.9,35.3,29.76,West,277,0.0,6.0,94,0.00,,,0.04,Wunderground v.1.15,2013-10-23 09:40:00,
2013-10-23 05:50:00,36.8,35.2,29.76,West,277,0.0,6.0,94,0.00,,,0.04,Wunderground v.1.15,2013-10-23 09:50:00,
2013-10-23 05:55:00,36.8,35.2,29.76,West,277,0.0,6.0,94,0.00,,,0.04,Wunderground v.1.15,2013-10-23 09:55:00,
2013-10-23 06:00:00,36.8,35.2,29.77,West,277,0.0,6.0,94,0.00,,,0.04,Wunderground v.1.15,2013-10-23 10:00:00,
2013-10-23 06:05:00,37.0,35.7,29.77,West,277,0.0,6.0,95,0.00,,,0.04,Wunderground v.1.15,2013-10-23 10:05:00,
2013-10-23 06:15:00,37.1,35.8,29.76,West,277,0.0,6.0,95,0.00,,,0.04,Wunderground v.1.15,2013-10-23 10:15:00,
2013-10-23 06:25:00,37.2,35.9,29.76,West,277,0.0,6.0,95,0.00,,,0.04,Wunderground v.1.15,2013-10-23 10:25:00,
2013-10-23 06:30:00,37.3,36.0,29.75,West,277,0.0,6.0,95,0.00,,,0.04,Wunderground v.1.15,2013-10-23 10:30:00,
2013-10-23 06:35:00,37.3,36.0,29.75,West,277,0.0,6.0,95,0.00,,,0.04,Wunderground v.1.15,2013-10-23 10:35:00,
2013-10-23 06:40:00,37.5,36.2,29.75,West,277,0.0,6.0,95,0.00,,,0.04,Wunderground v.1.15,2013-10-23 10:40:00,
2013-10-23 06:45:00,37.6,36.3,29.75,West,277,0.0,6.0,95,0.00,,,0.04,Wunderground v.1.15,2013-10-23 10:45:00,
2013-10-23 06:55:00,37.6,36.3,29.75,West,277,0.0,6.0,95,0.00,,,0.04,Wunderground v.1.15,2013-10-23 10:55:00,
2013-10-23 07:00:00,37.6,36.3,29.75,West,277,0.0,6.0,95,0.00,,,0.04,Wunderground v.1.15,2013-10-23 11:00:00,
2013-10-23 07:05:00,37.7,36.4,29.75,West,277,0.0,6.0,95,0.00,,,0.04,Wunderground v.1.15,2013-10-23 11:05:00,
2013-10-23 07:10:00,37.7,36.4,29.75,West,277,0.0,6.0,95,0.00,,,0.04,Wunderground v.1.15,2013-10-23 11:10:00,
2013-10-23 07:15:00,37.8,36.5,29.76,West,277,0.0,6.0,95,0.00,,,0.04,Wunderground v.1.15,2013-10-23 11:15:00,
2013-10-23 07:25:00,37.8,36.5,29.76,West,277,0.0,6.0,95,0.00,,,0.04,Wunderground v.1.15,2013-10-23 11:25:00,
2013-10-23 07:35:00,37.9,36.6,29.76,West,277,0.0,6.0,95,0.00,,,0.04,Wunderground v.1.15,2013-10-23 11:35:00,
2013-10-23 07:40:00,38.0,36.7,29.76,West,277,0.0,6.0,95,0.00,,,0.04,Wunderground v.1.15,2013-10-23 11:40:00,
2013-10-23 07:45:00,38.0,36.7,29.76,West,277,0.0,6.0,95,0.00,,,0.04,Wunderground v.1.15,2013-10-23 11:45:00,
2013-10-23 07:50:00,38.1,36.8,29.76,West,277,0.0,6.0,95,0.00,,,0.04,Wunderground v.1.15,2013-10-23 11:50:00,
2013-10-23 07:55:00,38.2,37.2,29.77,West,277,0.0,6.0,96,0.00,,,0.04,Wunderground v.1.15,2013-10-23 11:55:00,
2013-10-23 08:05:00,38.3,37.3,29.77,West,277,0.0,6.0,96,0.00,,,0.04,Wunderground v.1.15,2013-10-23 12:05:00,
2013-10-23 08:10:00,38.4,37.4,29.77,West,277,0.0,6.0,96,0.00,,,0.04,Wunderground v.1.15,2013-10-23 12:10:00,
2013-10-23 08:15:00,38.4,37.4,29.77,West,277,0.0,6.0,96,0.00,,,0.04,Wunderground v.1.15,2013-10-23 12:15:00,
2013-10-23 08:20:00,38.5,37.5,29.77,West,277,0.0,6.0,96,0.00,,,0.04,Wunderground v.1.15,2013-10-23 12:20:00,
2013-10-23 08:25:00,38.5,37.5,29.77,West,277,0.0,6.0,96,0.00,,,0.04,Wunderground v.1.15,2013-10-23 12:25:00,
2013-10-23 08:35:00,38.6,37.6,29.77,West,277,0.0,6.0,96,0.00,,,0.04,Wunderground v.1.15,2013-10-23 12:35:00,
2013-10-23 08:45:00,38.8,37.8,29.77,West,277,0.0,6.0,96,0.00,,,0.04,Wunderground v.1.15,2013-10-23 12:45:00,
2013-10-23 08:50:00,39.0,38.0,29.77,West,277,0.0,6.0,96,0.00,,,0.04,Wunderground v.1.15,2013-10-23 12:50:00,
2013-10-23 08:55:00,39.2,38.2,29.77,West,277,0.0,6.0,96,0.00,,,0.04,Wunderground v.1.15,2013-10-23 12:55:00,
2013-10-23 09:00:00,39.4,38.4,29.78,West,277,0.0,6.0,96,0.00,,,0.04,Wunderground v.1.15,2013-10-23 13:00:00,
2013-10-23 09:10:00,39.6,38.6,29.78,West,277,0.0,6.0,96,0.00,,,0.04,Wunderground v.1.15,2013-10-23 13:10:00,
2013-10-23 09:15:00,39.5,38.5,29.78,West,277,0.0,6.0,96,0.00,,,0.04,Wunderground v.1.15,2013-10-23 13:15:00,
2013-10-23 09:20:00,39.6,38.6,29.78,West,277,0.0,6.0,96,0.00,,,0.04,Wunderground v.1.15,2013-10-23 13:20:00,
2013-10-23 09:25:00,40.0,39.0,29.78,West,277,0.0,6.0,96,0.00,,,0.04,Wunderground v.1.15,2013-10-23 13:25:00,
2013-10-23 09:30:00,40.3,39.3,29.78,West,277,0.0,6.0,96,0.00,,,0.04,Wunderground v.1.15,2013-10-23 13:30:00,
2013-10-23 09:35:00,40.4,39.4,29.78,West,277,0.0,6.0,96,0.00,,,0.04,Wunderground v.1.15,2013-10-23 13:35:00,
2013-10-23 09:45:00,41.0,39.7,29.79,NW,315,0.0,6.0,95,0.00,,,0.04,Wunderground v.1.15,2013-10-23 13:45:00,
2013-10-23 09:55:00,41.3,40.0,29.79,NW,315,0.0,6.0,95,0.00,,,0.04,Wunderground v.1.15,2013-10-23 13:55:00,
2013-10-23 10:00:00,41.3,39.7,29.79,NW,315,0.0,6.0,94,0.00,,,0.04,Wunderground v.1.15,2013-10-23 14:00:00,
2013-10-23 10:05:00,41.3,39.4,29.79,NW,315,0.0,6.0,93,0.00,,,0.04,Wunderground v.1.15,2013-10-23 14:05:00,
2013-10-23 10:10:00,41.3,39.4,29.79,NW,315,0.0,6.0,93,0.00,,,0.04,Wunderground v.1.15,2013-10-23 14:10:00,
2013-10-23 10:20:00,41.3,39.4,29.79,North,11,1.0,1.0,93,0.00,,,0.04,Wunderground v.1.15,2013-10-23 14:20:00,
2013-10-23 10:25:00,41.3,39.4,29.79,NNW,340,1.0,6.0,93,0.00,,,0.04,Wunderground v.1.15,2013-10-23 14:25:00,
2013-10-23 10:30:00,41.4,39.3,29.79,North,355,1.0,6.0,92,0.00,,,0.04,Wunderground v.1.15,2013-10-23 14:30:00,
2013-10-23 10:35:00,41.5,39.3,29.79,North,355,1.0,6.0,92,0.00,,,0.04,Wunderground v.1.15,2013-10-23 14:35:00,
2013-10-23 10:40:00,41.5,39.3,29.79,North,350,1.0,1.0,92,0.00,,,0.04,Wunderground v.1.15,2013-10-23 14:40:00,
2013-10-23 10:50:00,41.3,39.2,29.79,NNE,18,1.0,1.0,92,0.00,,,0.04,Wunderground v.1.15,2013-10-23 14:50:00,
2013-10-23 10:55:00,41.3,39.2,29.79,North,355,1.0,6.0,92,0.00,,,0.04,Wunderground v.1.15,2013-10-23 14:55:00,
2013-10-23 11:05:00,41.2,39.1,29.79,North,355,0.0,6.0,92,0.00,,,0.04,Wunderground v.1.15,2013-10-23 15:05:00,
2013-10-23 11:10:00,41.2,39.1,29.79,North,355,0.0,6.0,92,0.00,,,0.04,Wunderground v.1.15,2013-10-23 15:10:00,
2013-10-23 11:15:00,41.4,39.3,29.79,North,355,0.0,6.0,92,0.00,,,0.04,Wunderground v.1.15,2013-10-23 15:15:00,
2013-10-23 11:25:00,41.8,39.6,29.79,West,277,0.0,6.0,92,0.00,,,0.04,Wunderground v.1.15,2013-10-23 15:25:00,
2013-10-23 11:30:00,41.9,39.7,29.79,North,351,0.0,6.0,92,0.00,,,0.04,Wunderground v.1.15,2013-10-23 15:30:00,
2013-10-23 11:35:00,41.9,39.7,29.79,North,351,0.0,6.0,92,0.00,,,0.04,Wunderground v.1.15,2013-10-23 15:35:00,
2013-10-23 11:40:00,42.1,39.9,29.79,North,351,0.0,6.0,92,0.00,,,0.04,Wunderground v.1.15,2013-10-23 15:40:00,
2013-10-23 11:45:00,42.1,39.9,29.79,North,350,0.0,6.0,92,0.00,,,0.04,Wunderground v.1.15,2013-10-23 15:45:00,
2013-10-23 11:50:00,42.0,39.8,29.79,WSW,257,0.0,6.0,92,0.00,,,0.04,Wunderground v.1.15,2013-10-23 15:50:00,
2013-10-23 12:00:00,42.1,40.2,29.79,West,265,0.0,6.0,93,0.00,,,0.04,Wunderground v.1.15,2013-10-23 16:00:00,
2013-10-23 12:05:00,42.4,40.5,29.79,North,5,1.0,6.0,93,0.00,,,0.04,Wunderground v.1.15,2013-10-23 16:05:00,
2013-10-23 12:10:00,42.6,40.7,29.79,North,351,2.0,2.0,93,0.00,,,0.04,Wunderground v.1.15,2013-10-23 16:10:00,
2013-10-23 12:15:00,42.7,40.5,29.80,North,349,2.0,3.0,92,0.00,,,0.04,Wunderground v.1.15,2013-10-23 16:15:00,
2013-10-23 12:25:00,43.1,40.9,29.80,WNW,298,1.0,6.0,92,0.00,,,0.04,Wunderground v.1.15,2013-10-23 16:25:00,
2013-10-23 12:35:00,43.0,40.6,29.80,North,360,1.0,9.0,91,0.00,,,0.05,Wunderground v.1.15,2013-10-23 16:35:00,
2013-10-23 12:40:00,43.1,40.9,29.80,West,260,2.0,2.0,92,0.00,,,0.05,Wunderground v.1.15,2013-10-23 16:40:00,
2013-10-23 12:45:00,43.2,41.0,29.80,NW,306,2.0,6.0,92,0.00,,,0.05,Wunderground v.1.15,2013-10-23 16:45:00,
2013-10-23 12:50:00,43.1,40.7,29.79,NNW,346,1.0,6.0,91,0.00,,,0.05,Wunderground v.1.15,2013-10-23 16:50:00,
2013-10-23 12:55:00,43.2,40.8,29.80,North,5,1.0,6.0,91,0.00,,,0.05,Wunderground v.1.15,2013-10-23 16:55:00,
2013-10-23 13:05:00,42.9,40.5,29.79,North,350,2.0,6.0,91,0.00,,,0.05,Wunderground v.1.15,2013-10-23 17:05:00,
2013-10-23 13:10:00,42.7,40.3,29.80,WNW,296,3.0,3.0,91,0.00,,,0.05,Wunderground v.1.15,2013-10-23 17:10:00,
2013-10-23 13:15:00,42.4,40.0,29.80,North,360,3.0,6.0,91,0.00,,,0.05,Wunderground v.1.15,2013-10-23 17:15:00,
2013-10-23 13:20:00,42.3,39.9,29.80,North,11,2.0,6.0,91,0.00,,,0.05,Wunderground v.1.15,2013-10-23 17:20:00,
2013-10-23 13:30:00,42.6,40.4,29.80,North,355,1.0,6.0,92,0.00,,,0.05,Wunderground v.1.15,2013-10-23 17:30:00,
2013-10-23 13:40:00,42.5,40.1,29.80,NNW,344,2.0,6.0,91,0.00,,,0.05,Wunderground v.1.15,2013-10-23 17:40:00,
2013-10-23 13:45:00,42.4,40.0,29.80,NNE,24,2.0,6.0,91,0.00,,,0.05,Wunderground v.1.15,2013-10-23 17:45:00,
2013-10-23 13:50:00,42.4,40.0,29.80,North,355,2.0,6.0,91,0.00,,,0.05,Wunderground v.1.15,2013-10-23 17:50:00,
2013-10-23 13:55:00,42.4,40.0,29.80,North,355,3.0,6.0,91,0.00,,,0.05,Wunderground v.1.15,2013-10-23 17:55:00,
2013-10-23 14:00:00,42.4,40.0,29.80,NNE,17,3.0,3.0,91,0.00,,,0.05,Wunderground v.1.15,2013-10-23 18:00:00,
2013-10-23 14:05:00,42.6,40.2,29.80,North,9,2.0,6.0,91,0.00,,,0.05,Wunderground v.1.15,2013-10-23 18:05:00,
2013-10-23 14:15:00,43.1,40.1,29.80,North,351,2.0,6.0,89,0.00,,,0.05,Wunderground v.1.15,2013-10-23 18:15:00,
2013-10-23 14:20:00,43.4,40.4,29.80,North,360,2.0,6.0,89,0.00,,,0.05,Wunderground v.1.15,2013-10-23 18:20:00,
2013-10-23 14:25:00,43.5,40.2,29.80,NNW,338,2.0,6.0,88,0.00,,,0.05,Wunderground v.1.15,2013-10-23 18:25:00,
2013-10-23 14:30:00,43.5,39.9,29.80,WNW,293,2.0,6.0,87,0.00,,,0.05,Wunderground v.1.15,2013-10-23 18:30:00,
2013-10-23 14:40:00,43.0,39.4,29.81,WNW,296,3.0,3.0,87,0.00,,,0.06,Wunderground v.1.15,2013-10-23 18:40:00,
2013-10-23 14:45:00,42.0,38.7,29.81,North,360,4.0,4.0,88,0.17,,,0.07,Wunderground v.1.15,2013-10-23 18:45:00,
2013-10-23 14:50:00,41.5,38.8,29.82,NNW,337,5.0,5.0,90,0.10,,,0.08,Wunderground v.1.15,2013-10-23 18:50:00,
2013-10-23 14:55:00,41.4,39.0,29.81,North,5,3.0,6.0,91,0.08,,,0.08,Wunderground v.1.15,2013-10-23 18:55:00,
2013-10-23 15:00:00,41.6,39.4,29.82,North,5,1.0,1.0,92,0.05,,,0.08,Wunderground v.1.15,2013-10-23 19:00:00,
2013-10-23 15:05:00,41.9,40.0,29.82,NNW,344,1.0,6.0,93,0.00,,,0.08,Wunderground v.1.15,2013-10-23 19:05:00,
2013-10-23 15:10:00,42.0,39.8,29.82,NNE,14,2.0,2.0,92,0.00,,,0.08,Wunderground v.1.15,2013-10-23 19:10:00,
2013-10-23 15:15:00,42.1,39.9,29.82,NNE,14,1.0,6.0,92,0.00,,,0.08,Wunderground v.1.15,2013-10-23 19:15:00,
2013-10-23 15:20:00,42.3,40.1,29.82,NNE,14,0.0,6.0,92,0.00,,,0.08,Wunderground v.1.15,2013-10-23 19:20:00,
2013-10-23 15:25:00,42.2,39.8,29.82,NNE,14,0.0,6.0,91,0.00,,,0.08,Wunderground v.1.15,2013-10-23 19:25:00,
2013-10-23 15:30:00,42.2,39.8,29.82,NNE,14,0.0,6.0,91,0.00,,,0.08,Wunderground v.1.15,2013-10-23 19:30:00,
2013-10-23 15:35:00,42.3,39.9,29.82,NNE,14,0.0,6.0,91,0.00,,,0.08,Wunderground v.1.15,2013-10-23 19:35:00,
2013-10-23 15:45:00,42.5,40.1,29.83,NNE,14,0.0,6.0,91,0.00,,,0.08,Wunderground v.1.15,2013-10-23 19:45:00,
2013-10-23 15:55:00,42.7,40.3,29.83,NNE,14,0.0,6.0,91,0.00,,,0.08,Wunderground v.1.15,2013-10-23 19:55:00,
2013-10-23 16:00:00,42.8,40.4,29.83,NNE,14,0.0,6.0,91,0.00,,,0.08,Wunderground v.1.15,2013-10-23 20:00:00,
2013-10-23 16:05:00,42.7,40.0,29.83,West,279,1.0,6.0,90,0.00,,,0.08,Wunderground v.1.15,2013-10-23 20:05:00,
2013-10-23 16:10:00,42.6,39.9,29.83,West,279,1.0,1.0,90,0.00,,,0.08,Wunderground v.1.15,2013-10-23 20:10:00,
2013-10-23 16:15:00,42.6,40.2,29.84,West,279,1.0,6.0,91,0.00,,,0.08,Wunderground v.1.15,2013-10-23 20:15:00,
2013-10-23 16:20:00,42.7,40.3,29.84,West,270,2.0,6.0,91,0.00,,,0.08,Wunderground v.1.15,2013-10-23 20:20:00,
2013-10-23 16:25:00,42.7,40.0,29.83,West,270,2.0,6.0,90,0.00,,,0.08,Wunderground v.1.15,2013-10-23 20:25:00,
2013-10-23 16:30:00,42.8,40.4,29.84,West,277,1.0,6.0,91,0.00,,,0.08,Wunderground v.1.15,2013-10-23 20:30:00,
2013-10-23 16:35:00,42.8,40.1,29.84,West,277,2.0,6.0,90,0.00,,,0.08,Wunderground v.1.15,2013-10-23 20:35:00,
2013-10-23 16:40:00,42.7,40.0,29.84,West,277,2.0,2.0,90,0.00,,,0.08,Wunderground v.1.15,2013-10-23 20:40:00,
2013-10-23 16:45:00,42.5,39.8,29.84,West,277,1.0,6.0,90,0.00,,,0.08,Wunderground v.1.15,2013-10-23 20:45:00,
2013-10-23 16:55:00,42.6,40.2,29.84,West,271,1.0,6.0,91,0.00,,,0.08,Wunderground v.1.15,2013-10-23 20:55:00,
2013-10-23 17:00:00,42.7,40.3,29.85,West,281,2.0,6.0,91,0.00,,,0.08,Wunderground v.1.15,2013-10-23 21:00:00,
2013-10-23 17:10:00,42.9,40.2,29.85,West,276,2.0,2.0,90,0.00,,,0.08,Wunderground v.1.15,2013-10-23 21:10:00,
2013-10-23 17:15:00,43.0,40.6,29.85,West,276,2.0,6.0,91,0.00,,,0.08,Wunderground v.1.15,2013-10-23 21:15:00,
2013-10-23 17:20:00,43.1,40.7,29.85,West,276,2.0,2.0,91,0.00,,,0.08,Wunderground v.1.15,2013-10-23 21:20:00,
2013-10-23 17:25:00,43.1,40.4,29.85,West,276,2.0,6.0,90,0.00,,,0.08,Wunderground v.1.15,2013-10-23 21:25:00,
2013-10-23 17:35:00,42.9,40.2,29.86,West,271,1.0,6.0,90,0.00,,,0.08,Wunderground v.1.15,2013-10-23 21:35:00,
2013-10-23 17:40:00,42.8,40.1,29.86,West,271,1.0,6.0,90,0.00,,,0.08,Wunderground v.1.15,2013-10-23 21:40:00,
2013-10-23 17:45:00,42.8,40.1,29.86,West,271,1.0,6.0,90,0.00,,,0.08,Wunderground v.1.15,2013-10-23 21:45:00,
2013-10-23 17:50:00,42.8,40.4,29.86,West,271,0.0,6.0,91,0.00,,,0.08,Wunderground v.1.15,2013-10-23 21:50:00,
2013-10-23 17:55:00,42.8,40.4,29.87,West,271,0.0,6.0,91,0.00,,,0.08,Wunderground v.1.15,2013-10-23 21:55:00,
2013-10-23 18:05:00,42.8,40.4,29.87,West,271,0.0,6.0,91,0.00,,,0.08,Wunderground v.1.15,2013-10-23 22:05:00,
2013-10-23 18:15:00,42.5,39.5,29.87,West,271,0.0,6.0,89,0.00,,,0.08,Wunderground v.1.15,2013-10-23 22:15:00,
2013-10-23 18:20:00,42.3,39.0,29.87,West,271,0.0,6.0,88,0.00,,,0.08,Wunderground v.1.15,2013-10-23 22:20:00,
2013-10-23 18:25:00,42.1,38.2,29.87,West,271,0.0,6.0,86,0.00,,,0.08,Wunderground v.1.15,2013-10-23 22:25:00,
2013-10-23 18:30:00,41.9,37.7,29.87,West,271,0.0,6.0,85,0.00,,,0.08,Wunderground v.1.15,2013-10-23 22:30:00,
2013-10-23 18:35:00,41.8,37.6,29.88,West,271,0.0,6.0,85,0.00,,,0.08,Wunderground v.1.15,2013-10-23 22:35:00,
2013-10-23 18:45:00,41.6,37.7,29.88,West,271,0.0,6.0,86,0.00,,,0.08,Wunderground v.1.15,2013-10-23 22:45:00,
2013-10-23 18:50:00,41.6,38.0,29.88,West,271,0.0,6.0,87,0.00,,,0.08,Wunderground v.1.15,2013-10-23 22:50:00,
2013-10-23 18:55:00,41.4,37.8,29.88,West,271,0.0,6.0,87,0.00,,,0.08,Wunderground v.1.15,2013-10-23 22:55:00,
2013-10-23 19:00:00,41.3,37.7,29.88,West,271,0.0,6.0,87,0.00,,,0.08,Wunderground v.1.15,2013-10-23 23:00:00,
2013-10-23 19:05:00,41.1,37.8,29.88,West,271,0.0,6.0,88,0.00,,,0.08,Wunderground v.1.15,2013-10-23 23:05:00,
2013-10-23 19:15:00,40.7,37.4,29.88,West,271,0.0,6.0,88,0.00,,,0.08,Wunderground v.1.15,2013-10-23 23:15:00,
2013-10-23 19:25:00,40.3,37.3,29.89,West,271,0.0,6.0,89,0.00,,,0.08,Wunderground v.1.15,2013-10-23 23:25:00,
2013-10-23 19:30:00,40.0,36.7,29.89,West,271,0.0,6.0,88,0.00,,,0.08,Wunderground v.1.15,2013-10-23 23:30:00,
2013-10-23 19:35:00,39.8,36.2,29.89,West,271,0.0,6.0,87,0.00,,,0.08,Wunderground v.1.15,2013-10-23 23:35:00,
2013-10-23 19:40:00,39.6,35.8,29.89,West,271,0.0,6.0,86,0.00,,,0.08,Wunderground v.1.15,2013-10-23 23:40:00,
2013-10-23 19:50:00,39.3,35.5,29.89,West,271,0.0,6.0,86,0.00,,,0.08,Wunderground v.1.15,2013-10-23 23:50:00,
2013-10-23 19:55:00,39.3,35.8,29.89,West,271,1.0,6.0,87,0.00,,,0.08,Wunderground v.1.15,2013-10-23 23:55:00,
2013-10-23 20:00:00,39.1,35.6,29.89,West,271,0.0,6.0,87,0.00,,,0.08,Wunderground v.1.15,2013-10-24 00:00:00,
2013-10-23 20:05:00,38.9,35.4,29.89,West,271,0.0,6.0,87,0.00,,,0.08,Wunderground v.1.15,2013-10-24 00:05:00,
2013-10-23 20:10:00,38.5,35.0,29.90,West,271,0.0,6.0,87,0.00,,,0.08,Wunderground v.1.15,2013-10-24 00:10:00,
2013-10-23 20:15:00,38.2,35.0,29.90,West,271,0.0,6.0,88,0.00,,,0.08,Wunderground v.1.15,2013-10-24 00:15:00,
2013-10-23 20:25:00,37.4,34.5,29.90,West,271,0.0,6.0,89,0.00,,,0.08,Wunderground v.1.15,2013-10-24 00:25:00,
2013-10-23 20:30:00,37.2,34.5,29.90,West,271,0.0,6.0,90,0.00,,,0.08,Wunderground v.1.15,2013-10-24 00:30:00,
2013-10-23 20:35:00,36.9,34.2,29.90,West,271,0.0,6.0,90,0.00,,,0.08,Wunderground v.1.15,2013-10-24 00:35:00,
2013-10-23 20:45:00,36.3,33.6,29.91,West,271,0.0,6.0,90,0.00,,,0.08,Wunderground v.1.15,2013-10-24 00:45:00,
2013-10-23 20:50:00,36.0,33.4,29.91,West,271,0.0,6.0,90,0.00,,,0.08,Wunderground v.1.15,2013-10-24 00:50:00,
2013-10-23 21:00:00,35.5,33.1,29.91,West,271,0.0,6.0,91,0.00,,,0.08,Wunderground v.1.15,2013-10-24 01:00:00,
2013-10-23 21:05:00,35.2,32.8,29.91,West,271,0.0,6.0,91,0.00,,,0.08,Wunderground v.1.15,2013-10-24 01:05:00,
2013-10-23 21:10:00,35.0,32.9,29.91,West,271,0.0,6.0,92,0.00,,,0.08,Wunderground v.1.15,2013-10-24 01:10:00,
2013-10-23 21:15:00,34.9,32.8,29.91,West,271,0.0,6.0,92,0.00,,,0.08,Wunderground v.1.15,2013-10-24 01:15:00,
2013-10-23 21:20:00,34.8,32.7,29.91,West,271,0.0,6.0,92,0.00,,,0.08,Wunderground v.1.15,2013-10-24 01:20:00,
2013-10-23 21:30:00,34.6,32.8,29.91,West,271,0.0,6.0,93,0.00,,,0.08,Wunderground v.1.15,2013-10-24 01:30:00,
2013-10-23 21:35:00,34.5,32.7,29.91,West,271,0.0,6.0,93,0.00,,,0.08,Wunderground v.1.15,2013-10-24 01:35:00,
2013-10-23 21:40:00,34.4,32.6,29.91,West,271,0.0,6.0,93,0.00,,,0.08,Wunderground v.1.15,2013-10-24 01:40:00,
2013-10-23 21:50:00,34.2,32.4,29.92,West,271,0.0,6.0,93,0.00,,,0.08,Wunderground v.1.15,2013-10-24 01:50:00,
2013-10-23 21:55:00,34.2,32.4,29.92,West,271,0.0,6.0,93,0.00,,,0.08,Wunderground v.1.15,2013-10-24 01:55:00,
2013-10-23 22:00:00,34.2,32.7,29.92,West,271,0.0,6.0,94,0.00,,,0.08,Wunderground v.1.15,2013-10-24 02:00:00,
2013-10-23 22:05:00,34.2,32.7,29.92,West,271,0.0,6.0,94,0.00,,,0.08,Wunderground v.1.15,2013-10-24 02:05:00,
2013-10-23 22:10:00,34.3,32.8,29.92,West,271,0.0,6.0,94,0.00,,,0.08,Wunderground v.1.15,2013-10-24 02:10:00,
2013-10-23 22:15:00,34.3,32.8,29.92,West,271,0.0,6.0,94,0.00,,,0.08,Wunderground v.1.15,2013-10-24 02:15:00,
2013-10-23 22:20:00,34.4,32.9,29.92,West,271,0.0,6.0,94,0.00,,,0.08,Wunderground v.1.15,2013-10-24 02:20:00,
2013-10-23 22:25:00,34.6,33.1,29.92,West,271,0.0,6.0,94,0.00,,,0.08,Wunderground v.1.15,2013-10-24 02:25:00,
2013-10-23 22:35:00,35.1,33.8,29.93,West,271,0.0,6.0,95,0.00,,,0.08,Wunderground v.1.15,2013-10-24 02:35:00,
2013-10-23 22:45:00,36.4,35.1,29.93,WSW,252,2.0,6.0,95,0.00,,,0.08,Wunderground v.1.15,2013-10-24 02:45:00,
2013-10-23 22:50:00,36.9,35.6,29.93,WSW,252,2.0,6.0,95,0.00,,,0.08,Wunderground v.1.15,2013-10-24 02:50:00,
2013-10-23 22:55:00,37.3,35.7,29.93,WSW,252,1.0,6.0,94,0.00,,,0.08,Wunderground v.1.15,2013-10-24 02:55:00,
2013-10-23 23:00:00,37.7,36.1,29.93,West,262,1.0,1.0,94,0.00,,,0.08,Wunderground v.1.15,2013-10-24 03:00:00,
2013-10-23 23:05:00,37.9,36.1,29.93,West,262,2.0,2.0,93,0.00,,,0.08,Wunderground v.1.15,2013-10-24 03:05:00,
2013-10-23 23:15:00,38.3,36.2,29.93,SW,233,1.0,6.0,92,0.00,,,0.08,Wunderground v.1.15,2013-10-24 03:15:00,
2013-10-23 23:20:00,38.4,36.3,29.93,WSW,252,2.0,2.0,92,0.00,,,0.08,Wunderground v.1.15,2013-10-24 03:20:00,
2013-10-23 23:25:00,38.5,36.4,29.93,West,275,2.0,3.0,92,0.00,,,0.08,Wunderground v.1.15,2013-10-24 03:25:00,
2013-10-23 23:35:00,38.6,36.5,29.93,WSW,258,2.0,6.0,92,0.00,,,0.08,Wunderground v.1.15,2013-10-24 03:35:00,
2013-10-23 23:40:00,38.6,36.5,29.93,West,270,2.0,6.0,92,0.00,,,0.08,Wunderground v.1.15,2013-10-24 03:40:00,
2013-10-23 23:50:00,38.7,36.6,29.93,West,265,3.0,3.0,92,0.00,,,0.08,Wunderground v.1.15,2013-10-24 03:50:00,
2013-10-23 23:55:00,38.6,36.2,29.93,West,276,2.0,6.0,91,0.00,,,0.08,Wunderground v.1.15,2013-10-24 03:55:00,